createdAt,value
2022-12-03T00:02:51.293Z,65.78
2022-12-03T00:07:52.328Z,60.90
2022-12-03T00:12:54.524Z,59.35
2022-12-03T00:17:55.315Z,68.78
2022-12-03T00:22:56.138Z,64.93
2022-12-03T00:27:58.289Z,61.67
2022-12-03T00:32:59.094Z,66.00
2022-12-03T00:37:59.973Z,74.32
2022-12-03T00:43:02.128Z,59.20
2022-12-03T00:48:03.089Z,70.25
2022-12-03T00:53:03.957Z,63.53
2022-12-03T00:58:08.343Z,66.90
2022-12-03T01:03:09.146Z,70.35
2022-12-03T01:08:10.088Z,69.43
2022-12-03T01:13:12.379Z,67.95
2022-12-03T01:18:13.163Z,68.22
2022-12-03T01:23:14.008Z,63.95
2022-12-03T01:28:16.246Z,74.05
2022-12-03T01:33:17.080Z,66.05
2022-12-03T01:38:17.900Z,64.75
2022-12-03T01:43:20.189Z,65.30
2022-12-03T01:48:21.037Z,58.58
2022-12-03T01:53:21.888Z,61.03
2022-12-03T01:58:29.838Z,67.82
2022-12-03T02:03:30.738Z,63.13
2022-12-03T02:08:33.705Z,57.88
2022-12-03T02:13:37.147Z,60.38
2022-12-03T02:18:38.106Z,60.42
2022-12-03T02:23:47.605Z,60.58
2022-12-03T02:28:49.930Z,57.60
2022-12-03T02:33:50.936Z,64.82
2022-12-03T02:38:52.503Z,65.97
2022-12-03T02:43:54.683Z,57.58
2022-12-03T02:48:55.621Z,63.67
2022-12-03T02:53:57.781Z,57.75
2022-12-03T02:59:04.298Z,61.90
2022-12-03T03:04:06.856Z,62.53
2022-12-03T03:09:07.826Z,67.68
2022-12-03T03:14:10.059Z,58.80
2022-12-03T03:19:10.870Z,62.80
2022-12-03T03:24:11.688Z,70.20
2022-12-03T03:29:14.023Z,62.80
2022-12-03T03:34:15.920Z,58.70
2022-12-03T03:39:16.985Z,63.95
2022-12-03T03:44:19.192Z,59.92
2022-12-03T03:49:20.019Z,61.13
2022-12-03T03:54:21.088Z,54.67
2022-12-03T03:59:23.292Z,56.10
2022-12-03T04:04:26.705Z,54.72
2022-12-03T04:09:27.907Z,55.92
2022-12-03T04:14:30.057Z,54.90
2022-12-03T04:19:30.850Z,50.42
2022-12-03T04:24:31.942Z,54.78
2022-12-03T04:29:34.165Z,59.63
2022-12-03T04:34:52.943Z,56.90
2022-12-03T04:39:53.968Z,53.78
2022-12-03T04:44:58.372Z,54.50
2022-12-03T04:49:59.127Z,51.38
2022-12-03T04:54:59.916Z,61.22
2022-12-03T05:00:02.071Z,49.05
2022-12-03T05:05:02.940Z,57.40
2022-12-03T05:10:03.919Z,56.47
2022-12-03T05:15:07.431Z,50.08
2022-12-03T05:20:28.280Z,52.72
2022-12-03T05:25:29.116Z,56.00
2022-12-03T05:30:31.495Z,57.50
2022-12-03T05:35:33.169Z,55.38
2022-12-03T05:40:34.020Z,53.92
2022-12-03T05:45:38.508Z,53.53
2022-12-03T05:50:41.526Z,56.38
2022-12-03T05:55:48.176Z,50.20
2022-12-03T06:00:50.337Z,54.28
2022-12-03T06:05:51.114Z,56.33
2022-12-03T06:10:52.258Z,48.85
2022-12-03T06:15:54.464Z,52.92
2022-12-03T06:20:55.263Z,51.05
2022-12-03T06:25:56.023Z,55.53
2022-12-03T06:30:58.216Z,54.53
2022-12-03T06:35:59.123Z,55.50
2022-12-03T06:40:59.899Z,46.88
2022-12-03T06:46:02.093Z,55.72
2022-12-03T06:51:08.130Z,57.80
2022-12-03T06:56:09.953Z,48.88
2022-12-03T07:01:12.162Z,54.22
2022-12-03T07:06:13.124Z,48.88
2022-12-03T07:11:27.927Z,51.08
2022-12-03T07:16:30.486Z,55.40
2022-12-03T07:21:31.501Z,51.17
2022-12-03T07:26:32.832Z,48.67
2022-12-03T07:31:35.060Z,49.22
2022-12-03T07:36:36.015Z,47.88
2022-12-03T07:41:36.817Z,52.97
2022-12-03T07:46:39.004Z,52.28
2022-12-03T07:51:39.887Z,55.63
2022-12-03T07:56:40.916Z,50.50
2022-12-03T08:01:43.184Z,55.00
2022-12-03T08:06:44.067Z,58.60
2022-12-03T08:11:46.404Z,55.30
2022-12-03T08:16:49.309Z,54.40
2022-12-03T08:21:50.180Z,46.35
2022-12-03T08:26:51.030Z,51.88
2022-12-03T08:31:55.226Z,54.63
2022-12-03T08:36:59.889Z,50.00
2022-12-03T08:42:27.959Z,51.42
2022-12-03T08:47:32.379Z,51.85
2022-12-03T08:52:35.173Z,54.90
2022-12-03T08:57:36.144Z,56.78
2022-12-03T09:02:38.343Z,59.42
2022-12-03T09:07:39.211Z,61.03
2022-12-03T09:12:40.071Z,58.13
2022-12-03T09:17:42.426Z,60.22
2022-12-03T09:22:43.270Z,64.93
2022-12-03T09:27:44.114Z,61.63
2022-12-03T09:32:46.282Z,59.58
2022-12-03T09:37:47.111Z,59.78
2022-12-03T09:42:48.486Z,65.07
2022-12-03T09:47:52.309Z,67.63
2022-12-03T09:52:58.176Z,60.22
2022-12-03T09:58:01.026Z,60.70
2022-12-03T10:03:07.192Z,65.70
2022-12-03T10:08:11.233Z,69.10
2022-12-03T10:13:14.431Z,58.45
2022-12-03T10:18:20.276Z,58.38
2022-12-03T10:23:22.906Z,56.33
2022-12-03T10:28:34.538Z,62.28
2022-12-03T10:33:38.640Z,60.22
2022-12-03T10:38:39.468Z,58.35
2022-12-03T10:43:40.258Z,66.70
2022-12-03T10:48:42.408Z,63.40
2022-12-03T10:53:43.308Z,58.97
2022-12-03T10:58:44.144Z,62.72
2022-12-03T11:03:46.858Z,68.40
2022-12-03T11:08:56.561Z,67.28
2022-12-03T11:14:00.135Z,60.90
2022-12-03T11:19:03.778Z,66.35
2022-12-03T11:24:18.498Z,78.15
2022-12-03T11:30:03.215Z,68.25
2022-12-03T11:35:05.490Z,59.47
2022-12-03T11:40:33.521Z,61.97
2022-12-03T11:45:39.359Z,77.35
2022-12-03T11:50:43.476Z,66.78
2022-12-03T11:55:47.261Z,58.75
2022-12-03T12:00:53.540Z,63.63
2022-12-03T12:06:07.147Z,65.55
2022-12-03T12:11:18.344Z,62.20
2022-12-03T12:16:51.328Z,72.05
2022-12-03T12:21:53.675Z,69.75
2022-12-03T12:26:54.477Z,68.03
2022-12-03T12:32:00.829Z,65.50
2022-12-03T12:37:04.099Z,65.30
2022-12-03T12:42:28.504Z,67.97
2022-12-03T12:47:32.420Z,60.65
2022-12-03T12:52:34.641Z,66.93
2022-12-03T12:57:35.490Z,51.95
2022-12-03T13:02:42.568Z,54.25
2022-12-03T13:07:45.981Z,53.78
2022-12-03T13:12:46.882Z,51.35
2022-12-03T13:17:47.762Z,55.50
2022-12-03T13:22:50.001Z,54.50
2022-12-03T13:27:51.802Z,46.97
2022-12-03T13:32:52.642Z,53.95
2022-12-03T13:37:54.879Z,48.72
2022-12-03T13:42:55.741Z,47.03
2022-12-03T13:47:59.646Z,45.55
2022-12-03T13:53:03.389Z,42.65
2022-12-03T13:58:04.180Z,39.17
2022-12-03T14:03:05.467Z,42.92
2022-12-03T14:08:07.738Z,42.53
2022-12-03T14:13:08.584Z,39.03
2022-12-03T14:18:09.372Z,35.97
2022-12-03T14:23:11.520Z,38.00
2022-12-03T14:28:12.432Z,36.72
2022-12-03T14:33:13.291Z,33.95
2022-12-03T14:38:15.445Z,35.33
2022-12-03T14:43:16.210Z,30.75
2022-12-03T14:48:17.047Z,33.35
2022-12-03T14:53:24.103Z,48.42
2022-12-03T14:58:28.269Z,57.83
2022-12-03T15:03:29.154Z,60.38
2022-12-03T15:08:31.419Z,67.18
2022-12-03T15:13:32.323Z,61.72
2022-12-03T15:18:34.568Z,69.85
2022-12-03T15:23:36.866Z,71.60
2022-12-03T15:28:52.760Z,72.10
2022-12-03T15:33:59.069Z,71.93
2022-12-03T15:39:01.874Z,74.18
2022-12-03T15:44:03.218Z,70.72
2022-12-03T15:49:03.995Z,75.50
2022-12-03T15:54:06.504Z,83.95
2022-12-03T15:59:07.329Z,75.78
2022-12-03T16:04:08.119Z,76.50
2022-12-03T16:09:10.445Z,81.03
2022-12-03T16:14:11.224Z,69.22
2022-12-03T16:19:12.055Z,77.95
2022-12-03T16:24:14.230Z,71.07
2022-12-03T16:29:15.466Z,71.43
2022-12-03T16:34:16.249Z,75.53
2022-12-03T16:39:18.576Z,78.93
2022-12-03T16:44:32.229Z,76.93
2022-12-03T16:49:32.996Z,78.68
2022-12-03T16:54:35.152Z,88.22
2022-12-03T16:59:35.959Z,69.60
2022-12-03T17:04:37.154Z,82.68
2022-12-03T17:09:39.746Z,69.00
2022-12-03T17:14:40.665Z,87.45
2022-12-03T17:19:41.464Z,76.88
2022-12-03T17:24:43.625Z,74.60
2022-12-03T17:29:44.504Z,74.22
2022-12-03T17:34:45.440Z,78.97
2022-12-03T17:39:47.593Z,71.75
2022-12-03T17:44:48.431Z,85.60
2022-12-03T17:49:49.323Z,86.00
2022-12-03T18:00:13.382Z,83.25
2022-12-03T18:05:15.852Z,76.43
2022-12-03T18:10:18.378Z,73.75
2022-12-03T18:15:19.180Z,74.05
2022-12-03T18:20:20.206Z,76.97
2022-12-03T18:25:22.508Z,82.75
2022-12-03T18:30:23.770Z,77.75
2022-12-03T18:35:24.825Z,75.78
2022-12-03T18:40:27.788Z,68.95
2022-12-03T18:45:28.621Z,74.18
2022-12-03T18:50:29.462Z,77.90
2022-12-03T18:55:35.232Z,71.50
2022-12-03T19:00:36.346Z,67.10
2022-12-03T19:05:37.575Z,69.63
2022-12-03T19:10:39.801Z,66.65
2022-12-03T19:15:40.671Z,76.20
2022-12-03T19:20:41.948Z,81.30
2022-12-03T19:25:54.852Z,68.72
2022-12-03T19:31:00.437Z,62.33
2022-12-03T19:36:02.337Z,65.60
2022-12-03T19:41:07.334Z,77.40
2022-12-03T19:46:10.477Z,75.82
2022-12-03T19:51:33.028Z,69.35
2022-12-03T19:56:33.946Z,71.63
2022-12-03T20:01:40.414Z,70.97
2022-12-03T20:06:41.550Z,73.47
2022-12-03T20:11:44.569Z,70.10
2022-12-03T20:16:45.830Z,76.45
2022-12-03T20:21:46.794Z,67.18
2022-12-03T20:26:48.993Z,78.53
2022-12-03T20:31:49.951Z,75.93
2022-12-03T20:36:50.853Z,64.15
2022-12-03T20:41:53.176Z,74.95
2022-12-03T20:46:54.127Z,71.70
2022-12-03T20:51:57.014Z,75.93
2022-12-03T20:57:00.848Z,76.70
2022-12-03T21:02:01.911Z,77.75
2022-12-03T21:07:02.856Z,88.72
2022-12-03T21:12:05.572Z,90.55
2022-12-03T21:17:09.109Z,93.95
2022-12-03T21:22:10.173Z,84.35
2022-12-03T21:27:15.784Z,83.60
2022-12-03T21:32:20.783Z,96.20
2022-12-03T21:37:22.009Z,96.20
2022-12-03T21:42:35.363Z,93.68
2022-12-03T21:47:37.802Z,98.07
2022-12-03T21:52:38.827Z,97.90
2022-12-03T21:57:40.977Z,97.65
2022-12-03T22:02:42.117Z,89.40
2022-12-03T22:07:43.031Z,94.05
2022-12-03T22:12:45.244Z,93.15
2022-12-03T22:17:46.088Z,95.80
2022-12-03T22:22:46.886Z,88.10
2022-12-03T22:27:49.019Z,90.40
2022-12-03T22:32:49.874Z,93.22
2022-12-03T22:37:50.745Z,97.22
2022-12-03T22:42:52.894Z,86.03
2022-12-03T22:47:53.665Z,87.00
2022-12-03T22:52:54.543Z,92.30
2022-12-03T22:57:56.647Z,85.55
2022-12-03T23:02:57.484Z,86.07
2022-12-03T23:07:58.410Z,94.80
2022-12-03T23:13:00.609Z,91.93
2022-12-03T23:18:01.450Z,95.47
2022-12-03T23:23:02.234Z,86.95
2022-12-03T23:28:04.456Z,97.07
2022-12-03T23:33:05.895Z,83.68
2022-12-03T23:38:06.752Z,85.65
2022-12-03T23:43:08.881Z,94.13
2022-12-03T23:48:09.687Z,86.57
2022-12-03T23:53:10.525Z,85.60
2022-12-03T23:58:12.665Z,82.40
